Time;durP1;ratioP1;P1;durP2;ratioP2;P2;SDS_P1;SDS_P2;PMS_P1;PMS_P2;Temp;Humidity;BMP_temperature;BMP_pressure;BME280_temperature;BME280_humidity;BME280_pressure;Samples;Min_cycle;Max_cycle;Signal;HPM_P1;HPM_P2
2023/05/11 00:01:53;;;;;;;;;;;;;;;17.40;58.09;100377.41;4981377;28;8483;-78
2023/05/11 00:04:19;;;;;;;;;;;;;;;17.42;58.45;100378.31;4968121;28;7292;-78
2023/05/11 00:06:44;;;;;;;;;;;;;;;17.41;58.44;100370.53;4965877;28;6795;-79
2023/05/11 00:09:10;;;;;;;;;;;;;;;17.40;58.36;100364.47;4960175;28;7202;-78
2023/05/11 00:11:36;;;;;;;;;;;;;;;17.38;58.05;100366.16;4978758;28;7207;-78
2023/05/11 00:14:02;;;;;;;;;;;;;;;17.37;58.31;100363.53;4966534;28;7269;-78
2023/05/11 00:16:28;;;;;;;;;;;;;;;17.34;58.45;100367.81;4963869;28;6849;-78
2023/05/11 00:18:53;;;;;;;;;;;;;;;17.33;58.59;100368.66;4967132;28;8416;-78
2023/05/11 00:21:21;;;;;;;;;;;;;;;17.37;58.42;100373.88;4960734;28;8416;-78
2023/05/11 00:23:47;;;;;;;;;;;;;;;17.42;58.59;100372.28;4946757;28;7002;-79
2023/05/11 00:26:13;;;;;;;;;;;;;;;17.45;58.30;100374.91;4935664;28;8488;-76
2023/05/11 00:28:39;;;;;;;;;;;;;;;17.46;58.28;100372.38;4966703;28;6828;-79
2023/05/11 00:31:05;;;;;;;;;;;;;;;17.45;58.25;100372.31;4966857;28;7209;-79
2023/05/11 00:33:30;;;;;;;;;;;;;;;17.44;58.48;100374.06;4945567;28;7125;-79
2023/05/11 00:35:56;;;;;;;;;;;;;;;17.45;58.37;100372.31;4961750;28;7320;-77
2023/05/11 00:38:22;;;;;;;;;;;;;;;17.43;58.67;100372.31;4966402;28;8980;-78
2023/05/11 00:40:48;;;;;;;;;;;;;;;17.43;58.56;100374.91;4965382;28;6788;-77
2023/05/11 00:43:14;;;;;;;;;;;;;;;17.41;58.81;100370.53;4940092;28;8685;-78
2023/05/11 00:45:40;;;;;;;;;;;;;;;17.40;58.14;100371.38;4963337;28;8521;-79
2023/05/11 00:48:06;;;;;;;;;;;;;;;17.38;58.12;100370.44;4965274;28;8501;-78
2023/05/11 00:50:32;;;;;;;;;;;;;;;17.37;58.60;100369.59;4936393;28;6834;-79
2023/05/11 00:52:58;;;;;;;;;;;;;;;17.36;58.74;100373.03;4964123;28;6852;-79
2023/05/11 00:55:26;;;;;;;;;;;;;;;17.34;58.24;100362.63;4963442;28;6789;-78
2023/05/11 00:57:52;;;;;;;;;;;;;;;17.33;58.38;100363.47;4960079;28;6951;-77
2023/05/11 01:00:17;;;;;;;;;;;;;;;17.33;58.24;100362.59;4934263;28;6864;-77
2023/05/11 01:02:44;;;;;;;;;;;;;;;17.30;58.05;100363.44;4951747;28;7753;-77
2023/05/11 01:05:10;;;;;;;;;;;;;;;17.28;58.20;100372.84;4966262;28;6796;-77
2023/05/11 01:07:40;;;;;;;;;;;;;;;17.23;58.34;100365.84;4945065;28;7324;-77
2023/05/11 01:10:31;;;;;;;;;;;;;;;17.20;58.20;100372.72;4957766;28;9015;-77
2023/05/11 01:13:31;;;;;;;;;;;;;;;17.20;58.14;100371.84;4963242;28;7087;-77
2023/05/11 01:15:57;;;;;;;;;;;;;;;17.16;58.55;100372.63;4930861;28;7259;-77
2023/05/11 01:18:32;;;;;;;;;;;;;;;17.13;58.41;100370.84;4959990;28;6784;-76
2023/05/11 01:21:01;;;;;;;;;;;;;;;17.11;58.38;100377.69;4962088;28;7175;-77
2023/05/11 01:23:58;;;;;;;;;;;;;;;17.08;58.29;100378.50;4919220;28;6848;-77
2023/05/11 01:26:53;;;;;;;;;;;;;;;17.04;58.83;100376.72;4931705;28;9790;-77
2023/05/11 01:29:51;;;;;;;;;;;;;;;16.99;58.72;100374.84;4958239;28;7870;-77
2023/05/11 01:32:26;;;;;;;;;;;;;;;16.92;58.45;100364.34;4958643;28;6892;-77
2023/05/11 01:35:03;;;;;;;;;;;;;;;16.87;58.68;100372.84;4977754;28;7011;-77
2023/05/11 01:37:32;;;;;;;;;;;;;;;16.82;58.76;100371.88;4967968;28;7210;-77
2023/05/11 01:40:09;;;;;;;;;;;;;;;16.78;58.91;100371.81;4951003;28;7000;-77
2023/05/11 01:42:46;;;;;;;;;;;;;;;16.76;58.83;100370.91;4965109;28;6845;-77
2023/05/11 01:45:15;;;;;;;;;;;;;;;16.73;58.84;100368.25;4930478;28;6832;-77
2023/05/11 01:47:47;;;;;;;;;;;;;;;16.71;59.06;100375.13;4961267;28;7241;-77
2023/05/11 01:50:17;;;;;;;;;;;;;;;16.69;59.05;100370.75;4961966;28;9592;-76
2023/05/11 01:52:47;;;;;;;;;;;;;;;16.65;59.11;100373.22;4963196;28;6838;-77
2023/05/11 01:55:18;;;;;;;;;;;;;;;16.64;59.32;100373.22;4961671;28;6971;-77
2023/05/11 01:57:46;;;;;;;;;;;;;;;16.60;59.26;100373.97;4960678;28;6979;-77
2023/05/11 02:00:15;;;;;;;;;;;;;;;16.59;59.38;100372.22;4961918;28;7209;-77
2023/05/11 02:02:46;;;;;;;;;;;;;;;16.56;59.69;100377.34;4930381;28;6959;-77
2023/05/11 02:05:21;;;;;;;;;;;;;;;16.52;59.93;100369.53;4934173;28;7328;-77
2023/05/11 02:07:50;;;;;;;;;;;;;;;16.51;59.72;100372.94;4962412;28;6800;-76
2023/05/11 02:10:17;;;;;;;;;;;;;;;16.50;59.45;100375.50;4960728;28;7231;-77
2023/05/11 02:12:45;;;;;;;;;;;;;;;16.48;59.83;100370.28;4953614;28;6872;-77
2023/05/11 02:15:13;;;;;;;;;;;;;;;16.47;59.29;100373.69;4973365;28;6788;-77
2023/05/11 02:17:41;;;;;;;;;;;;;;;16.47;59.56;100373.69;4955605;28;6800;-77
2023/05/11 02:20:10;;;;;;;;;;;;;;;16.45;59.57;100383.13;4954465;28;6994;-77
2023/05/11 02:22:37;;;;;;;;;;;;;;;16.45;59.73;100383.13;4956677;28;6987;-77
2023/05/11 02:25:05;;;;;;;;;;;;;;;16.44;59.74;100378.81;4970044;28;6796;-77
2023/05/11 02:27:31;;;;;;;;;;;;;;;16.44;59.83;100388.28;4943915;28;6812;-77
2023/05/11 02:29:57;;;;;;;;;;;;;;;16.45;59.79;100387.44;4951443;28;6864;-77
2023/05/11 02:32:28;;;;;;;;;;;;;;;16.44;59.75;100389.16;4968204;28;6856;-77
2023/05/11 02:35:04;;;;;;;;;;;;;;;16.45;60.18;100388.31;4968232;28;6869;-77
2023/05/11 02:37:32;;;;;;;;;;;;;;;16.47;59.65;100383.19;4966235;28;6800;-77
2023/05/11 02:40:04;;;;;;;;;;;;;;;16.46;60.07;100379.72;4950673;28;6813;-77
2023/05/11 02:42:37;;;;;;;;;;;;;;;16.47;59.64;100380.59;4949351;28;7334;-77
2023/05/11 02:45:09;;;;;;;;;;;;;;;16.48;59.80;100379.75;4964250;28;6796;-77
2023/05/11 02:47:44;;;;;;;;;;;;;;;16.46;59.42;100379.72;4950065;28;7004;-77
2023/05/11 02:50:12;;;;;;;;;;;;;;;16.45;59.40;100375.38;4965588;28;7873;-74
2023/05/11 02:52:45;;;;;;;;;;;;;;;16.42;59.76;100372.72;4965536;28;8770;-77
2023/05/11 02:55:15;;;;;;;;;;;;;;;16.41;59.61;100376.13;4970520;28;6796;-74
2023/05/11 02:57:43;;;;;;;;;;;;;;;16.38;59.87;100374.38;4955029;28;7035;-75
2023/05/11 03:00:10;;;;;;;;;;;;;;;16.36;59.59;100381.19;4968211;28;7013;-75
2023/05/11 03:02:36;;;;;;;;;;;;;;;16.32;59.82;100373.31;4960571;28;11431;-74
2023/05/11 03:05:03;;;;;;;;;;;;;;;16.29;59.75;100383.59;4984099;28;6772;-74
2023/05/11 03:07:31;;;;;;;;;;;;;;;16.24;59.49;100376.63;4987437;28;7110;-75
2023/05/11 03:09:56;;;;;;;;;;;;;;;16.20;59.43;100364.44;4973955;28;8656;-76
2023/05/11 03:12:22;;;;;;;;;;;;;;;16.16;59.69;100366.91;4969506;28;8506;-75
2023/05/11 03:14:50;;;;;;;;;;;;;;;16.13;59.86;100362.56;4986188;28;6808;-74
2023/05/11 03:17:18;;;;;;;;;;;;;;;16.09;59.93;100363.31;4972369;28;7182;-74
2023/05/11 03:19:44;;;;;;;;;;;;;;;16.07;59.95;100359.81;4983468;28;7192;-74
2023/05/11 03:22:11;;;;;;;;;;;;;;;16.02;59.29;100351.94;4986344;28;6988;-74
2023/05/11 03:24:38;;;;;;;;;;;;;;;15.98;59.54;100352.69;4982545;28;6874;-74
2023/05/11 03:27:06;;;;;;;;;;;;;;;15.90;59.77;100355.09;4972269;28;6980;-75
2023/05/11 03:29:37;;;;;;;;;;;;;;;15.84;59.46;100360.09;4987082;28;7435;-74
2023/05/11 03:32:03;;;;;;;;;;;;;;;15.75;59.99;100354.69;4969380;28;6845;-74
2023/05/11 03:34:29;;;;;;;;;;;;;;;15.68;59.59;100359.69;4950687;28;7000;-73
2023/05/11 03:36:58;;;;;;;;;;;;;;;15.61;59.64;100355.16;4965466;28;6948;-74
2023/05/11 03:39:30;;;;;;;;;;;;;;;15.57;60.27;100365.38;4964970;28;7122;-78
2023/05/11 03:41:57;;;;;;;;;;;;;;;15.56;60.21;100359.34;4944210;28;8371;-75
2023/05/11 03:44:25;;;;;;;;;;;;;;;15.57;60.60;100361.09;4948139;28;8820;-78
2023/05/11 03:46:53;;;;;;;;;;;;;;;15.58;60.48;100357.69;4963808;28;6784;-78
2023/05/11 03:49:20;;;;;;;;;;;;;;;15.62;61.29;100353.47;4946159;28;8526;-79
2023/05/11 03:51:47;;;;;;;;;;;;;;;15.67;60.64;100360.50;4963723;28;6777;-78
2023/05/11 03:54:13;;;;;;;;;;;;;;;15.71;60.65;100353.72;4948520;28;8518;-78
2023/05/11 03:56:39;;;;;;;;;;;;;;;15.75;60.96;100357.25;4963500;28;6780;-79
2023/05/11 03:59:06;;;;;;;;;;;;;;;15.79;60.56;100354.81;4961093;28;6820;-78
2023/05/11 04:01:32;;;;;;;;;;;;;;;15.81;60.50;100359.97;4964004;28;7792;-78
2023/05/11 04:03:58;;;;;;;;;;;;;;;15.81;60.73;100362.56;4960436;28;6796;-78
2023/05/11 04:06:23;;;;;;;;;;;;;;;15.78;60.23;100360.78;4963462;28;7199;-78
2023/05/11 04:08:49;;;;;;;;;;;;;;;15.77;60.70;100358.16;4965373;28;6999;-76
2023/05/11 04:11:15;;;;;;;;;;;;;;;15.79;60.94;100369.41;4961973;28;6965;-78
2023/05/11 04:13:41;;;;;;;;;;;;;;;15.82;60.94;100366.91;4934578;28;8687;-77
2023/05/11 04:16:07;;;;;;;;;;;;;;;15.85;61.23;100369.59;4959591;28;6871;-79
2023/05/11 04:18:33;;;;;;;;;;;;;;;15.94;61.03;100371.56;4954378;28;10687;-79
2023/05/11 04:20:58;;;;;;;;;;;;;;;16.01;61.29;100367.41;4961997;28;6772;-79
2023/05/11 04:23:24;;;;;;;;;;;;;;;16.10;60.91;100365.94;4964300;28;8172;-78
2023/05/11 04:25:54;;;;;;;;;;;;;;;16.20;61.28;100367.03;4945392;28;6965;-79
2023/05/11 04:28:22;;;;;;;;;;;;;;;16.27;61.04;100374.94;4964186;28;6863;-79
2023/05/11 04:30:55;;;;;;;;;;;;;;;16.32;61.08;100379.38;4943975;28;7003;-79
2023/05/11 04:33:22;;;;;;;;;;;;;;;16.38;61.18;100386.41;4965609;28;8971;-79
2023/05/11 04:35:53;;;;;;;;;;;;;;;16.44;61.29;100386.56;4950886;28;7205;-79
2023/05/11 04:38:20;;;;;;;;;;;;;;;16.55;61.26;100391.97;4931701;28;6806;-78
2023/05/11 04:40:47;;;;;;;;;;;;;;;16.62;61.46;100395.59;4962649;28;8694;-79
2023/05/11 04:43:13;;;;;;;;;;;;;;;16.70;61.37;100388.00;4962187;28;9069;-78
2023/05/11 04:45:39;;;;;;;;;;;;;;;16.75;61.03;100395.03;4964754;28;6796;-78
2023/05/11 04:48:05;;;;;;;;;;;;;;;16.83;61.14;100396.94;4953135;28;7402;-76
2023/05/11 04:50:32;;;;;;;;;;;;;;;16.87;60.78;100388.38;4964489;28;7027;-78
2023/05/11 04:52:58;;;;;;;;;;;;;;;16.91;60.74;100395.38;4932389;28;8538;-78
2023/05/11 04:55:23;;;;;;;;;;;;;;;16.96;60.52;100393.75;4969326;28;7155;-78
2023/05/11 04:57:49;;;;;;;;;;;;;;;17.03;61.35;100399.97;4937403;28;6955;-77
2023/05/11 05:00:15;;;;;;;;;;;;;;;17.08;60.60;100398.38;4955646;28;8719;-77
2023/05/11 05:02:40;;;;;;;;;;;;;;;17.12;60.44;100400.16;4967840;28;7095;-79
2023/05/11 05:05:08;;;;;;;;;;;;;;;17.17;60.53;100402.84;4967036;28;8945;-78
2023/05/11 05:07:33;;;;;;;;;;;;;;;17.21;60.36;100404.69;4969079;28;6800;-79
2023/05/11 05:10:00;;;;;;;;;;;;;;;17.26;60.22;100405.63;4967875;28;6764;-77
2023/05/11 05:12:25;;;;;;;;;;;;;;;17.33;60.48;100410.09;4967858;28;6856;-78
2023/05/11 05:14:54;;;;;;;;;;;;;;;17.38;60.30;100414.50;4941208;28;6780;-77
2023/05/11 05:17:20;;;;;;;;;;;;;;;17.43;60.38;100408.59;4976807;28;6816;-79
2023/05/11 05:19:45;;;;;;;;;;;;;;;17.54;59.94;100411.38;4946986;28;6959;-79
2023/05/11 05:22:11;;;;;;;;;;;;;;;17.58;59.92;100414.91;4957705;28;8942;-78
2023/05/11 05:24:37;;;;;;;;;;;;;;;17.60;60.19;100418.38;4976902;28;6956;-80
2023/05/11 05:27:03;;;;;;;;;;;;;;;17.67;59.85;100421.97;4962035;28;6967;-78
2023/05/11 05:29:29;;;;;;;;;;;;;;;17.76;60.21;100420.44;4946450;28;7275;-79
2023/05/11 05:31:58;;;;;;;;;;;;;;;17.85;59.90;100417.13;4982358;28;6959;-80
2023/05/11 05:34:25;;;;;;;;;;;;;;;17.96;59.74;100421.63;4949246;28;6842;-79
2023/05/11 05:36:52;;;;;;;;;;;;;;;18.01;59.90;100420.91;4947332;28;8409;-80
2023/05/11 05:39:19;;;;;;;;;;;;;;;18.08;59.80;100427.09;4977663;28;7252;-80
2023/05/11 05:41:45;;;;;;;;;;;;;;;18.15;59.25;100422.88;4963058;28;8319;-79
2023/05/11 05:44:10;;;;;;;;;;;;;;;18.22;59.31;100429.03;4950931;28;6781;-78
2023/05/11 05:46:36;;;;;;;;;;;;;;;18.27;59.70;100419.63;4939011;28;6840;-76
2023/05/11 05:49:02;;;;;;;;;;;;;;;18.32;58.82;100431.81;4953450;28;8565;-76
2023/05/11 05:51:27;;;;;;;;;;;;;;;18.34;59.04;100434.41;4969355;28;8423;-76
2023/05/11 05:53:53;;;;;;;;;;;;;;;18.37;59.16;100438.78;4940079;28;6860;-77
2023/05/11 05:56:18;;;;;;;;;;;;;;;18.38;58.97;100435.34;4941129;28;7153;-77
2023/05/11 05:58:44;;;;;;;;;;;;;;;18.38;58.48;100445.72;4940481;28;6769;-77
2023/05/11 06:01:10;;;;;;;;;;;;;;;18.38;58.61;100436.25;4965563;28;6792;-77
2023/05/11 06:03:35;;;;;;;;;;;;;;;18.37;58.46;100437.09;4963490;28;6768;-77
2023/05/11 06:06:01;;;;;;;;;;;;;;;18.39;58.08;100443.16;4941292;28;6792;-77
2023/05/11 06:08:27;;;;;;;;;;;;;;;18.44;58.82;100443.25;4962235;28;7213;-77
2023/05/11 06:10:53;;;;;;;;;;;;;;;18.53;58.59;100450.28;4949671;28;7015;-77
2023/05/11 06:13:18;;;;;;;;;;;;;;;18.59;58.32;100451.28;4980085;28;7481;-77
2023/05/11 06:15:44;;;;;;;;;;;;;;;18.64;58.34;100451.34;4970907;28;6776;-77
2023/05/11 06:18:10;;;;;;;;;;;;;;;18.69;58.18;100452.28;4971541;28;6772;-77
2023/05/11 06:20:35;;;;;;;;;;;;;;;18.71;57.79;100455.78;4965139;28;6918;-77
2023/05/11 06:23:01;;;;;;;;;;;;;;;18.77;57.69;100454.13;4969661;28;7179;-77
2023/05/11 06:25:26;;;;;;;;;;;;;;;18.80;56.90;100448.97;4980266;28;6927;-77
2023/05/11 06:27:52;;;;;;;;;;;;;;;18.80;57.18;100449.88;4966433;28;7027;-77
2023/05/11 06:30:18;;;;;;;;;;;;;;;18.80;56.97;100454.16;4957064;28;6951;-78
2023/05/11 06:32:43;;;;;;;;;;;;;;;18.81;57.15;100453.31;4960708;28;7314;-77
2023/05/11 06:35:09;;;;;;;;;;;;;;;18.85;56.90;100452.53;4982635;28;6934;-77
2023/05/11 06:37:35;;;;;;;;;;;;;;;18.89;56.52;100454.31;4966425;28;6957;-77
2023/05/11 06:40:01;;;;;;;;;;;;;;;18.93;56.70;100452.63;4939123;28;6772;-77
2023/05/11 06:42:26;;;;;;;;;;;;;;;18.98;56.96;100451.84;4965810;28;7098;-77
2023/05/11 06:44:52;;;;;;;;;;;;;;;19.06;56.35;100451.97;4970798;28;6979;-77
2023/05/11 06:47:18;;;;;;;;;;;;;;;19.14;56.98;100452.09;4983095;28;6948;-77
2023/05/11 06:49:44;;;;;;;;;;;;;;;19.26;56.45;100453.97;4936236;28;6906;-77
2023/05/11 06:52:09;;;;;;;;;;;;;;;19.36;55.96;100457.56;4950492;28;6756;-77
2023/05/11 06:54:35;;;;;;;;;;;;;;;19.41;56.19;100458.47;4970830;28;7206;-77
2023/05/11 06:57:03;;;;;;;;;;;;;;;19.49;56.34;100459.44;4962612;28;6937;-77
2023/05/11 06:59:29;;;;;;;;;;;;;;;19.54;55.83;100455.19;4966208;28;6999;-77
2023/05/11 07:01:55;;;;;;;;;;;;;;;19.63;55.70;100457.03;4962569;28;7045;-76
2023/05/11 07:04:21;;;;;;;;;;;;;;;19.71;55.50;100460.59;4966174;28;6951;-76
2023/05/11 07:06:46;;;;;;;;;;;;;;;19.80;55.75;100446.84;4959634;28;6934;-77
2023/05/11 07:09:12;;;;;;;;;;;;;;;19.90;55.21;100452.97;4970992;28;7188;-77
2023/05/11 07:11:38;;;;;;;;;;;;;;;20.02;55.07;100449.69;4965945;28;7319;-77
2023/05/11 07:14:04;;;;;;;;;;;;;;;20.14;55.05;100450.66;4971237;28;6956;-77
2023/05/11 07:16:30;;;;;;;;;;;;;;;20.28;54.80;100451.66;4986248;28;7789;-77
2023/05/11 07:18:56;;;;;;;;;;;;;;;20.42;54.85;100448.28;4970264;28;6772;-77
2023/05/11 07:21:21;;;;;;;;;;;;;;;20.57;54.30;100455.34;4967440;28;6844;-77
2023/05/11 07:23:47;;;;;;;;;;;;;;;20.66;53.55;100458.03;4967650;28;6764;-77
2023/05/11 07:26:13;;;;;;;;;;;;;;;20.71;53.76;100456.31;4954318;28;6979;-77
2023/05/11 07:28:39;;;;;;;;;;;;;;;20.76;53.35;100461.53;4955377;28;7525;-76
2023/05/11 07:31:04;;;;;;;;;;;;;;;20.78;53.19;100454.63;4960788;28;7003;-76
2023/05/11 07:33:32;;;;;;;;;;;;;;;20.76;52.66;100453.72;4984691;28;7079;-77
2023/05/11 07:35:57;;;;;;;;;;;;;;;20.67;52.54;100462.38;4981617;28;7083;-77
2023/05/11 07:38:23;;;;;;;;;;;;;;;20.58;52.25;100459.69;4967148;28;7731;-77
2023/05/11 07:40:49;;;;;;;;;;;;;;;20.50;52.32;100467.44;4967236;28;6926;-76
2023/05/11 07:43:14;;;;;;;;;;;;;;;20.46;52.60;100456.13;4964513;28;8030;-77
2023/05/11 07:45:40;;;;;;;;;;;;;;;20.52;52.52;100458.78;4953206;28;9532;-76
2023/05/11 07:48:06;;;;;;;;;;;;;;;20.63;52.26;100461.47;4977179;28;6880;-76
2023/05/11 07:50:32;;;;;;;;;;;;;;;20.72;51.90;100465.00;4964016;28;7437;-77
2023/05/11 07:52:57;;;;;;;;;;;;;;;20.84;52.29;100467.72;4954223;28;6788;-77
2023/05/11 07:55:28;;;;;;;;;;;;;;;20.94;52.05;100472.13;4983282;28;6970;-75
2023/05/11 07:57:54;;;;;;;;;;;;;;;21.07;52.00;100469.59;4981479;28;7200;-75
2023/05/11 08:00:20;;;;;;;;;;;;;;;21.16;51.64;100464.44;4974737;28;6772;-75
2023/05/11 08:02:47;;;;;;;;;;;;;;;21.19;51.45;100460.97;4973314;28;7003;-75
2023/05/11 08:05:12;;;;;;;;;;;;;;;21.18;51.34;100467.03;4972016;28;9981;-75
2023/05/11 08:07:38;;;;;;;;;;;;;;;21.18;51.24;100470.53;4967828;28;6763;-76
2023/05/11 08:10:04;;;;;;;;;;;;;;;21.19;51.46;100472.28;4970117;28;7030;-76
2023/05/11 08:12:30;;;;;;;;;;;;;;;21.23;51.25;100467.94;4985036;28;6971;-76
2023/05/11 08:14:56;;;;;;;;;;;;;;;21.26;50.84;100472.31;4983773;28;6760;-76
2023/05/11 08:17:21;;;;;;;;;;;;;;;21.30;50.45;100468.84;4953226;28;6830;-76
2023/05/11 08:19:47;;;;;;;;;;;;;;;21.39;50.54;100462.78;4952506;28;6764;-76
2023/05/11 08:22:13;;;;;;;;;;;;;;;21.50;50.10;100463.72;4987646;28;7175;-75
2023/05/11 08:24:38;;;;;;;;;;;;;;;21.63;49.97;100462.00;4959268;28;6948;-75
2023/05/11 08:27:04;;;;;;;;;;;;;;;21.68;49.34;100460.34;4956338;28;7110;-75
2023/05/11 08:29:30;;;;;;;;;;;;;;;21.65;48.93;100462.91;4954470;28;7001;-76
2023/05/11 08:31:57;;;;;;;;;;;;;;;21.60;49.01;100464.63;4964428;28;6794;-76
2023/05/11 08:34:23;;;;;;;;;;;;;;;21.62;49.17;100462.88;4982947;28;6800;-76
2023/05/11 08:36:48;;;;;;;;;;;;;;;21.65;48.89;100466.38;4964183;28;6967;-76
2023/05/11 08:39:14;;;;;;;;;;;;;;;21.68;48.80;100462.06;4964072;28;6772;-76
2023/05/11 08:41:40;;;;;;;;;;;;;;;21.71;48.38;100469.91;4969465;28;7294;-75
2023/05/11 08:44:06;;;;;;;;;;;;;;;21.72;48.43;100467.28;4975118;28;7064;-74
2023/05/11 08:46:35;;;;;;;;;;;;;;;21.74;48.61;100476.00;4952663;28;7052;-75
2023/05/11 08:49:01;;;;;;;;;;;;;;;21.72;48.39;100472.50;4943115;28;6777;-75
2023/05/11 08:51:27;;;;;;;;;;;;;;;21.65;48.32;100468.97;4972947;28;6800;-75
2023/05/11 08:53:56;;;;;;;;;;;;;;;21.59;48.17;100471.59;4959282;28;7231;-75
2023/05/11 08:56:24;;;;;;;;;;;;;;;21.51;48.25;100471.53;4983081;28;6800;-76
2023/05/11 08:58:55;;;;;;;;;;;;;;;21.46;48.25;100477.59;4951866;28;6985;-76
2023/05/11 09:01:22;;;;;;;;;;;;;;;21.46;48.22;100483.69;4948448;28;7003;-76
2023/05/11 09:03:50;;;;;;;;;;;;;;;21.51;48.62;100479.34;4965111;28;6999;-76
2023/05/11 09:06:18;;;;;;;;;;;;;;;21.54;48.47;100478.50;4957266;28;6978;-76
2023/05/11 09:08:45;;;;;;;;;;;;;;;21.58;48.58;100479.41;4954895;28;7409;-76
2023/05/11 09:11:11;;;;;;;;;;;;;;;21.63;48.63;100481.16;4965476;28;6903;-76
2023/05/11 09:13:37;;;;;;;;;;;;;;;21.70;48.51;100473.38;4956478;28;6831;-76
2023/05/11 09:16:02;;;;;;;;;;;;;;;21.72;48.17;100488.16;4952019;28;6847;-75
2023/05/11 09:18:28;;;;;;;;;;;;;;;21.70;47.97;100479.47;4969399;28;7206;-76
2023/05/11 09:20:54;;;;;;;;;;;;;;;21.75;48.40;100471.66;4955884;28;6915;-76
2023/05/11 09:23:28;;;;;;;;;;;;;;;21.86;48.19;100475.16;4971216;28;8537;-76
2023/05/11 09:25:54;;;;;;;;;;;;;;;21.94;47.88;100471.69;4975410;28;6983;-75
2023/05/11 09:28:22;;;;;;;;;;;;;;;21.92;47.97;100472.56;4973683;28;7208;-75
2023/05/11 09:30:48;;;;;;;;;;;;;;;21.90;47.67;100476.03;4987504;28;6893;-76
2023/05/11 09:33:24;;;;;;;;;;;;;;;21.92;48.18;100479.50;4992801;28;8495;-76
2023/05/11 09:35:52;;;;;;;;;;;;;;;22.00;48.15;100479.56;4955394;28;6788;-75
2023/05/11 09:38:19;;;;;;;;;;;;;;;22.08;48.15;100472.63;4971240;28;6888;-75
2023/05/11 09:40:54;;;;;;;;;;;;;;;22.12;47.58;100470.88;4971925;28;7096;-76
2023/05/11 09:43:27;;;;;;;;;;;;;;;22.09;47.13;100476.06;4970171;28;6983;-76
2023/05/11 09:46:03;;;;;;;;;;;;;;;22.01;47.21;100474.31;4961571;28;6804;-75
2023/05/11 09:48:31;;;;;;;;;;;;;;;21.92;46.79;100479.50;4967506;28;7217;-76
2023/05/11 09:51:06;;;;;;;;;;;;;;;21.80;47.19;100469.94;4967225;28;7227;-75
2023/05/11 09:53:42;;;;;;;;;;;;;;;21.73;47.39;100483.81;4960569;28;7111;-76
2023/05/11 09:56:08;;;;;;;;;;;;;;;21.64;47.09;100482.03;4967444;28;7553;-76
2023/05/11 09:59:04;;;;;;;;;;;;;;;21.54;47.43;100482.88;4965719;28;7025;-75
2023/05/11 10:01:32;;;;;;;;;;;;;;;21.48;47.31;100484.56;4958112;28;6808;-76
2023/05/11 10:04:01;;;;;;;;;;;;;;;21.41;47.31;100488.00;4984125;28;6808;-75
2023/05/11 10:06:41;;;;;;;;;;;;;;;21.35;47.28;100488.84;4972918;28;6784;-75
2023/05/11 10:09:11;;;;;;;;;;;;;;;21.33;47.31;100485.38;4983086;28;7025;-76
2023/05/11 10:11:41;;;;;;;;;;;;;;;21.33;47.29;100481.88;4969450;28;7315;-76
2023/05/11 10:14:10;;;;;;;;;;;;;;;21.31;47.20;100481.00;4954291;28;6824;-75
2023/05/11 10:16:38;;;;;;;;;;;;;;;21.28;47.38;100481.84;4982266;28;7301;-76
2023/05/11 10:19:04;;;;;;;;;;;;;;;21.23;47.51;100474.00;4953667;28;6792;-76
2023/05/11 10:21:30;;;;;;;;;;;;;;;21.20;47.82;100478.38;4970489;28;7277;-76
2023/05/11 10:23:57;;;;;;;;;;;;;;;21.20;47.80;100479.22;4988095;28;7305;-76
2023/05/11 10:26:25;;;;;;;;;;;;;;;21.20;47.65;100481.81;4963748;28;8540;-75
2023/05/11 10:28:51;;;;;;;;;;;;;;;21.20;47.50;100479.22;4991097;28;8497;-76
2023/05/11 10:31:22;;;;;;;;;;;;;;;21.21;47.41;100473.16;4971958;28;7006;-77
2023/05/11 10:33:50;;;;;;;;;;;;;;;21.23;47.44;100473.16;4963724;28;7211;-75
2023/05/11 10:36:17;;;;;;;;;;;;;;;21.26;47.53;100469.72;4957094;28;6989;-75
2023/05/11 10:38:43;;;;;;;;;;;;;;;21.34;47.88;100479.28;4962889;28;6796;-76
2023/05/11 10:41:45;;;;;;;;;;;;;;;21.41;47.38;100468.91;4968487;28;7596;-77
2023/05/11 10:44:43;;;;;;;;;;;;;;;21.47;47.79;100468.91;4980874;28;6815;-76
2023/05/11 10:47:55;;;;;;;;;;;;;;;21.55;47.29;100474.19;4957395;28;6958;-75
2023/05/11 10:50:42;;;;;;;;;;;;;;;21.59;47.32;100473.31;4957988;28;7070;-76
2023/05/11 10:53:38;;;;;;;;;;;;;;;21.65;47.43;100482.03;4969638;28;10101;-76
2023/05/11 10:56:59;;;;;;;;;;;;;;;21.70;47.33;100482.06;4956938;28;8178;-78
2023/05/11 10:59:52;;;;;;;;;;;;;;;21.68;46.79;100480.31;4952078;28;7085;-75
2023/05/11 11:02:19;;;;;;;;;;;;;;;21.64;47.07;100485.50;4952549;28;7114;-76
2023/05/11 11:04:50;;;;;;;;;;;;;;;21.61;46.90;100480.28;4984724;28;6872;-77
2023/05/11 11:07:18;;;;;;;;;;;;;;;21.58;46.90;100477.63;4955875;28;6822;-76
2023/05/11 11:10:03;;;;;;;;;;;;;;;21.59;47.12;100478.53;4984470;28;6808;-77
2023/05/11 11:12:33;;;;;;;;;;;;;;;21.61;47.15;100482.00;4953598;28;8953;-77
2023/05/11 11:15:05;;;;;;;;;;;;;;;21.60;46.83;100477.66;4962129;28;6812;-77
2023/05/11 11:17:33;;;;;;;;;;;;;;;21.58;46.62;100476.78;4961880;28;7009;-76
2023/05/11 11:20:06;;;;;;;;;;;;;;;21.54;46.66;100477.66;4971244;28;6871;-77
2023/05/11 11:22:34;;;;;;;;;;;;;;;21.43;46.51;100478.44;4970271;28;7214;-76
2023/05/11 11:25:04;;;;;;;;;;;;;;;21.36;46.48;100474.09;4969234;28;6982;-75
2023/05/11 11:27:39;;;;;;;;;;;;;;;21.33;46.63;100479.28;4955529;28;6796;-76
2023/05/11 11:30:20;;;;;;;;;;;;;;;21.36;47.22;100474.94;4955232;28;6788;-74
2023/05/11 11:32:55;;;;;;;;;;;;;;;21.43;47.04;100475.84;4954218;28;13932;-76
2023/05/11 11:35:41;;;;;;;;;;;;;;;21.55;47.12;100476.78;4960797;28;8921;-76
2023/05/11 11:38:13;;;;;;;;;;;;;;;21.67;47.22;100471.63;4953759;28;6872;-76
2023/05/11 11:40:46;;;;;;;;;;;;;;;21.83;47.15;100463.88;4958525;28;7827;-79
2023/05/11 11:43:18;;;;;;;;;;;;;;;21.99;46.99;100472.59;4954402;28;7116;-79
2023/05/11 11:46:00;;;;;;;;;;;;;;;22.12;46.34;100465.66;4983383;28;7259;-77
2023/05/11 11:48:29;;;;;;;;;;;;;;;22.23;46.00;100463.03;4976960;28;7166;-76
2023/05/11 11:51:06;;;;;;;;;;;;;;;22.37;46.16;100455.22;4966570;28;6856;-76
2023/05/11 11:53:40;;;;;;;;;;;;;;;22.51;45.96;100456.13;4954545;28;7007;-77
2023/05/11 11:56:27;;;;;;;;;;;;;;;22.63;45.57;100457.00;4982274;28;7357;-77
2023/05/11 11:58:58;;;;;;;;;;;;;;;22.73;45.52;100459.56;4955560;28;6796;-76
2023/05/11 12:01:38;;;;;;;;;;;;;;;22.87;45.30;100462.16;4952333;28;7400;-77
2023/05/11 12:04:03;;;;;;;;;;;;;;;23.03;44.80;100462.13;4974038;28;8647;-77
2023/05/11 12:06:38;;;;;;;;;;;;;;;23.24;45.34;100458.59;4952274;28;6788;-75
2023/05/11 12:09:04;;;;;;;;;;;;;;;23.45;44.20;100456.78;4972484;28;6804;-77
2023/05/11 12:11:31;;;;;;;;;;;;;;;23.64;44.08;100454.94;4950852;28;8501;-77
2023/05/11 12:13:59;;;;;;;;;;;;;;;23.78;44.20;100443.56;4952120;28;8519;-76
2023/05/11 12:16:25;;;;;;;;;;;;;;;23.86;43.49;100447.00;4954106;28;6848;-77
2023/05/11 12:18:55;;;;;;;;;;;;;;;23.96;43.22;100443.44;4968604;28;7042;-77
2023/05/11 12:21:27;;;;;;;;;;;;;;;24.11;43.39;100441.59;4971336;28;7324;-75
2023/05/11 12:23:59;;;;;;;;;;;;;;;24.26;42.69;100433.63;4959676;28;7304;-75
2023/05/11 12:26:26;;;;;;;;;;;;;;;24.34;42.35;100430.94;4964377;28;6938;-75
2023/05/11 12:29:10;;;;;;;;;;;;;;;24.43;42.84;100431.75;4939976;28;6844;-75
2023/05/11 12:31:42;;;;;;;;;;;;;;;24.57;42.34;100426.38;4953185;28;7241;-75
2023/05/11 12:34:21;;;;;;;;;;;;;;;24.73;42.32;100433.22;4969191;28;6995;-75
2023/05/11 12:36:49;;;;;;;;;;;;;;;24.94;42.10;100431.28;4980870;28;7574;-75
2023/05/11 12:39:19;;;;;;;;;;;;;;;25.29;42.09;100434.34;4968472;28;8136;-75
2023/05/11 12:41:48;;;;;;;;;;;;;;;25.61;41.26;100433.09;4966349;28;7163;-75
2023/05/11 12:44:16;;;;;;;;;;;;;;;25.60;40.35;100426.09;4945352;28;7151;-75
2023/05/11 12:46:44;;;;;;;;;;;;;;;25.52;40.46;100427.06;4952486;28;7123;-75
2023/05/11 12:49:12;;;;;;;;;;;;;;;25.50;40.75;100420.13;4961117;28;6979;-75
2023/05/11 12:51:58;;;;;;;;;;;;;;;25.51;40.18;100427.97;4970459;28;7044;-75
2023/05/11 12:54:33;;;;;;;;;;;;;;;25.61;40.40;100419.97;4985093;28;6961;-75
2023/05/11 12:57:01;;;;;;;;;;;;;;;25.61;39.75;100412.97;4951884;28;7426;-75